sensor_id;sensor_type;location;lat;lon;timestamp;pressure;altitude;pressure_sealevel;temperature;humidity
6514;BME280;3290;47.716;9.070;2023-04-21T00:02:22;96547.00;;;6.68;100.00
6514;BME280;3290;47.716;9.070;2023-04-21T00:04:47;96538.19;;;6.69;100.00
6514;BME280;3290;47.716;9.070;2023-04-21T00:07:14;96538.19;;;6.62;100.00
6514;BME280;3290;47.716;9.070;2023-04-21T00:09:40;96547.00;;;6.55;100.00
6514;BME280;3290;47.716;9.070;2023-04-21T00:12:06;96543.16;;;6.51;100.00
6514;BME280;3290;47.716;9.070;2023-04-21T00:14:31;96534.16;;;6.47;100.00
6514;BME280;3290;47.716;9.070;2023-04-21T00:16:56;96529.97;;;6.46;100.00
6514;BME280;3290;47.716;9.070;2023-04-21T00:19:24;96530.75;;;6.59;100.00
6514;BME280;3290;47.716;9.070;2023-04-21T00:21:49;96538.38;;;6.74;100.00
6514;BME280;3290;47.716;9.070;2023-04-21T00:24:15;96543.38;;;6.75;100.00
6514;BME280;3290;47.716;9.070;2023-04-21T00:26:40;96537.81;;;6.84;100.00
6514;BME280;3290;47.716;9.070;2023-04-21T00:29:06;96524.97;;;6.77;100.00
6514;BME280;3290;47.716;9.070;2023-04-21T00:31:31;96523.16;;;6.77;100.00
6514;BME280;3290;47.716;9.070;2023-04-21T00:33:56;96523.16;;;6.83;100.00
6514;BME280;3290;47.716;9.070;2023-04-21T00:36:22;96520.16;;;6.74;100.00
6514;BME280;3290;47.716;9.070;2023-04-21T00:38:49;96517.16;;;6.64;100.00
6514;BME280;3290;47.716;9.070;2023-04-21T00:41:14;96507.34;;;6.40;100.00
6514;BME280;3290;47.716;9.070;2023-04-21T00:44:08;96500.53;;;6.39;100.00
6514;BME280;3290;47.716;9.070;2023-04-21T00:46:34;96501.72;;;6.37;100.00
6514;BME280;3290;47.716;9.070;2023-04-21T00:49:03;96498.50;;;6.28;100.00
6514;BME280;3290;47.716;9.070;2023-04-21T00:51:29;96499.13;;;6.30;100.00
6514;BME280;3290;47.716;9.070;2023-04-21T00:53:57;96503.31;;;6.18;100.00
6514;BME280;3290;47.716;9.070;2023-04-21T00:56:24;96498.94;;;6.38;100.00
6514;BME280;3290;47.716;9.070;2023-04-21T00:58:50;96495.28;;;6.13;100.00
6514;BME280;3290;47.716;9.070;2023-04-21T01:01:17;96493.28;;;6.09;100.00
6514;BME280;3290;47.716;9.070;2023-04-21T01:03:42;96504.31;;;6.11;100.00
6514;BME280;3290;47.716;9.070;2023-04-21T01:06:08;96502.72;;;6.16;100.00
6514;BME280;3290;47.716;9.070;2023-04-21T01:08:33;96508.13;;;6.21;100.00
6514;BME280;3290;47.716;9.070;2023-04-21T01:10:59;96512.91;;;6.24;100.00
6514;BME280;3290;47.716;9.070;2023-04-21T01:13:25;96512.50;;;6.14;100.00
6514;BME280;3290;47.716;9.070;2023-04-21T01:15:50;96518.94;;;6.25;100.00
6514;BME280;3290;47.716;9.070;2023-04-21T01:18:15;96517.28;;;6.17;100.00
6514;BME280;3290;47.716;9.070;2023-04-21T01:20:42;96516.91;;;6.07;100.00
6514;BME280;3290;47.716;9.070;2023-04-21T01:23:09;96526.06;;;5.97;100.00
6514;BME280;3290;47.716;9.070;2023-04-21T01:25:34;96523.66;;;5.96;100.00
6514;BME280;3290;47.716;9.070;2023-04-21T01:28:00;96533.66;;;5.98;100.00
6514;BME280;3290;47.716;9.070;2023-04-21T01:30:25;96535.84;;;5.95;100.00
6514;BME280;3290;47.716;9.070;2023-04-21T01:32:51;96537.63;;;5.88;100.00
6514;BME280;3290;47.716;9.070;2023-04-21T01:35:16;96539.44;;;5.94;100.00
6514;BME280;3290;47.716;9.070;2023-04-21T01:37:42;96540.91;;;6.09;100.00
6514;BME280;3290;47.716;9.070;2023-04-21T01:40:08;96535.88;;;6.08;100.00
6514;BME280;3290;47.716;9.070;2023-04-21T01:42:37;96529.28;;;6.12;100.00
6514;BME280;3290;47.716;9.070;2023-04-21T01:45:03;96530.16;;;6.38;100.00
6514;BME280;3290;47.716;9.070;2023-04-21T01:47:29;96539.75;;;6.38;100.00
6514;BME280;3290;47.716;9.070;2023-04-21T01:49:54;96546.06;;;6.03;100.00
6514;BME280;3290;47.716;9.070;2023-04-21T01:52:19;96529.28;;;6.05;100.00
6514;BME280;3290;47.716;9.070;2023-04-21T01:54:45;96524.06;;;5.99;100.00
6514;BME280;3290;47.716;9.070;2023-04-21T01:57:11;96529.00;;;5.88;100.00
6514;BME280;3290;47.716;9.070;2023-04-21T01:59:36;96520.84;;;5.91;100.00
6514;BME280;3290;47.716;9.070;2023-04-21T02:02:02;96517.38;;;5.77;100.00
6514;BME280;3290;47.716;9.070;2023-04-21T02:04:28;96521.66;;;5.97;100.00
6514;BME280;3290;47.716;9.070;2023-04-21T02:06:53;96524.84;;;5.99;100.00
6514;BME280;3290;47.716;9.070;2023-04-21T02:09:18;96529.69;;;6.02;100.00
6514;BME280;3290;47.716;9.070;2023-04-21T02:11:44;96518.81;;;5.80;100.00
6514;BME280;3290;47.716;9.070;2023-04-21T02:14:09;96520.38;;;5.81;100.00
6514;BME280;3290;47.716;9.070;2023-04-21T02:16:35;96522.38;;;5.79;100.00
6514;BME280;3290;47.716;9.070;2023-04-21T02:19:00;96513.97;;;5.77;100.00
6514;BME280;3290;47.716;9.070;2023-04-21T02:21:26;96512.47;;;6.01;100.00
6514;BME280;3290;47.716;9.070;2023-04-21T02:23:52;96515.25;;;5.94;100.00
6514;BME280;3290;47.716;9.070;2023-04-21T02:26:18;96508.28;;;6.07;100.00
6514;BME280;3290;47.716;9.070;2023-04-21T02:28:44;96506.91;;;6.11;100.00
6514;BME280;3290;47.716;9.070;2023-04-21T02:31:09;96509.28;;;6.12;100.00
6514;BME280;3290;47.716;9.070;2023-04-21T02:33:35;96497.28;;;6.05;100.00
6514;BME280;3290;47.716;9.070;2023-04-21T02:36:00;96493.28;;;6.02;100.00
6514;BME280;3290;47.716;9.070;2023-04-21T02:38:26;96504.03;;;5.87;100.00
6514;BME280;3290;47.716;9.070;2023-04-21T02:40:51;96502.63;;;5.91;100.00
6514;BME280;3290;47.716;9.070;2023-04-21T02:43:17;96502.47;;;5.98;100.00
6514;BME280;3290;47.716;9.070;2023-04-21T02:45:42;96507.09;;;6.09;100.00
6514;BME280;3290;47.716;9.070;2023-04-21T02:48:08;96499.69;;;6.13;100.00
6514;BME280;3290;47.716;9.070;2023-04-21T02:50:34;96512.91;;;6.18;100.00
6514;BME280;3290;47.716;9.070;2023-04-21T02:52:59;96508.69;;;6.10;100.00
6514;BME280;3290;47.716;9.070;2023-04-21T02:55:25;96507.28;;;6.08;100.00
6514;BME280;3290;47.716;9.070;2023-04-21T02:57:50;96516.47;;;6.10;100.00
6514;BME280;3290;47.716;9.070;2023-04-21T03:00:15;96520.47;;;6.06;100.00
6514;BME280;3290;47.716;9.070;2023-04-21T03:02:41;96529.66;;;6.09;100.00
6514;BME280;3290;47.716;9.070;2023-04-21T03:05:07;96536.16;;;6.45;100.00
6514;BME280;3290;47.716;9.070;2023-04-21T03:07:33;96528.56;;;6.63;100.00
6514;BME280;3290;47.716;9.070;2023-04-21T03:09:58;96531.38;;;6.48;100.00
6514;BME280;3290;47.716;9.070;2023-04-21T03:12:23;96525.31;;;6.22;100.00
6514;BME280;3290;47.716;9.070;2023-04-21T03:14:49;96520.94;;;6.29;100.00
6514;BME280;3290;47.716;9.070;2023-04-21T03:17:14;96526.78;;;6.57;100.00
6514;BME280;3290;47.716;9.070;2023-04-21T03:19:39;96527.38;;;6.72;100.00
6514;BME280;3290;47.716;9.070;2023-04-21T03:22:05;96519.38;;;6.60;100.00
6514;BME280;3290;47.716;9.070;2023-04-21T03:24:31;96525.56;;;6.34;100.00
6514;BME280;3290;47.716;9.070;2023-04-21T03:26:56;96513.31;;;6.28;100.00
6514;BME280;3290;47.716;9.070;2023-04-21T03:29:22;96503.72;;;6.28;100.00
6514;BME280;3290;47.716;9.070;2023-04-21T03:31:47;96501.34;;;6.27;100.00
6514;BME280;3290;47.716;9.070;2023-04-21T03:34:13;96495.72;;;6.23;100.00
6514;BME280;3290;47.716;9.070;2023-04-21T03:36:38;96495.28;;;6.13;100.00
6514;BME280;3290;47.716;9.070;2023-04-21T03:39:04;96506.53;;;6.33;100.00
6514;BME280;3290;47.716;9.070;2023-04-21T03:41:30;96517.78;;;6.53;100.00
6514;BME280;3290;47.716;9.070;2023-04-21T03:43:55;96514.19;;;6.67;100.00
6514;BME280;3290;47.716;9.070;2023-04-21T03:46:21;96515.34;;;6.58;100.00
6514;BME280;3290;47.716;9.070;2023-04-21T03:48:47;96497.75;;;6.66;100.00
6514;BME280;3290;47.716;9.070;2023-04-21T03:51:13;96493.34;;;6.54;100.00
6514;BME280;3290;47.716;9.070;2023-04-21T03:53:39;96488.94;;;6.48;100.00
6514;BME280;3290;47.716;9.070;2023-04-21T03:56:05;96494.13;;;6.41;100.00
6514;BME280;3290;47.716;9.070;2023-04-21T03:58:30;96496.94;;;6.66;100.00
6514;BME280;3290;47.716;9.070;2023-04-21T04:00:56;96497.75;;;6.73;100.00
6514;BME280;3290;47.716;9.070;2023-04-21T04:03:21;96490.75;;;6.60;100.00
6514;BME280;3290;47.716;9.070;2023-04-21T04:05:46;96491.13;;;6.77;100.00
6514;BME280;3290;47.716;9.070;2023-04-21T04:08:12;96488.53;;;6.70;100.00
6514;BME280;3290;47.716;9.070;2023-04-21T04:10:37;96487.72;;;6.76;100.00
6514;BME280;3290;47.716;9.070;2023-04-21T04:13:03;96494.94;;;6.80;100.00
6514;BME280;3290;47.716;9.070;2023-04-21T04:15:28;96504.97;;;6.71;100.00
6514;BME280;3290;47.716;9.070;2023-04-21T04:17:54;96492.91;;;6.89;100.00
6514;BME280;3290;47.716;9.070;2023-04-21T04:20:20;96512.72;;;6.96;100.00
6514;BME280;3290;47.716;9.070;2023-04-21T04:22:45;96501.31;;;6.97;100.00
6514;BME280;3290;47.716;9.070;2023-04-21T04:25:10;96484.50;;;7.06;100.00
6514;BME280;3290;47.716;9.070;2023-04-21T04:27:37;96463.25;;;7.09;100.00
6514;BME280;3290;47.716;9.070;2023-04-21T04:30:03;96460.50;;;6.91;100.00
6514;BME280;3290;47.716;9.070;2023-04-21T04:32:29;96437.66;;;6.80;100.00
6514;BME280;3290;47.716;9.070;2023-04-21T04:34:55;96436.66;;;6.81;100.00
6514;BME280;3290;47.716;9.070;2023-04-21T04:37:21;96441.03;;;6.87;100.00
6514;BME280;3290;47.716;9.070;2023-04-21T04:39:47;96462.91;;;6.86;100.00
6514;BME280;3290;47.716;9.070;2023-04-21T04:42:12;96482.50;;;6.89;100.00
6514;BME280;3290;47.716;9.070;2023-04-21T04:44:38;96485.72;;;6.97;100.00
6514;BME280;3290;47.716;9.070;2023-04-21T04:47:05;96494.53;;;6.83;100.00
6514;BME280;3290;47.716;9.070;2023-04-21T04:49:31;96488.06;;;7.18;100.00
6514;BME280;3290;47.716;9.070;2023-04-21T04:51:56;96479.44;;;7.30;100.00
6514;BME280;3290;47.716;9.070;2023-04-21T04:54:22;96472.59;;;7.42;100.00
6514;BME280;3290;47.716;9.070;2023-04-21T04:56:48;96462.78;;;7.31;100.00
6514;BME280;3290;47.716;9.070;2023-04-21T04:59:14;96473.78;;;7.40;100.00
6514;BME280;3290;47.716;9.070;2023-04-21T05:01:39;96475.59;;;7.39;100.00
6514;BME280;3290;47.716;9.070;2023-04-21T05:04:06;96475.59;;;7.39;100.00
6514;BME280;3290;47.716;9.070;2023-04-21T05:06:31;96487.22;;;7.37;100.00
6514;BME280;3290;47.716;9.070;2023-04-21T05:08:56;96492.25;;;7.32;100.00
6514;BME280;3290;47.716;9.070;2023-04-21T05:11:22;96479.16;;;7.51;100.00
6514;BME280;3290;47.716;9.070;2023-04-21T05:13:47;96481.97;;;7.56;100.00
6514;BME280;3290;47.716;9.070;2023-04-21T05:16:12;96492.25;;;7.32;100.00
6514;BME280;3290;47.716;9.070;2023-04-21T05:18:38;96487.84;;;7.26;100.00
6514;BME280;3290;47.716;9.070;2023-04-21T05:21:03;96484.38;;;7.45;100.00
6514;BME280;3290;47.716;9.070;2023-04-21T05:23:29;96490.78;;;7.49;100.00
6514;BME280;3290;47.716;9.070;2023-04-21T05:25:54;96494.03;;;7.44;100.00
6514;BME280;3290;47.716;9.070;2023-04-21T05:28:19;96493.63;;;7.34;100.00
6514;BME280;3290;47.716;9.070;2023-04-21T05:30:45;96492.59;;;7.42;100.00
6514;BME280;3290;47.716;9.070;2023-04-21T05:33:10;96485.94;;;7.58;100.00
6514;BME280;3290;47.716;9.070;2023-04-21T05:35:36;96494.34;;;7.60;100.00
6514;BME280;3290;47.716;9.070;2023-04-21T05:38:01;96499.16;;;7.63;100.00
6514;BME280;3290;47.716;9.070;2023-04-21T05:40:26;96493.94;;;7.63;100.00
6514;BME280;3290;47.716;9.070;2023-04-21T05:42:52;96490.94;;;7.66;100.00
6514;BME280;3290;47.716;9.070;2023-04-21T05:45:17;96493.56;;;7.54;100.00
6514;BME280;3290;47.716;9.070;2023-04-21T05:47:42;96491.09;;;7.71;100.00
6514;BME280;3290;47.716;9.070;2023-04-21T05:50:08;96495.31;;;7.79;100.00
6514;BME280;3290;47.716;9.070;2023-04-21T05:52:34;96501.78;;;7.63;100.00
6514;BME280;3290;47.716;9.070;2023-04-21T05:55:01;96495.50;;;7.77;100.00
6514;BME280;3290;47.716;9.070;2023-04-21T05:57:26;96490.94;;;8.10;100.00
6514;BME280;3290;47.716;9.070;2023-04-21T05:59:52;96492.94;;;8.08;100.00
6514;BME280;3290;47.716;9.070;2023-04-21T06:02:17;96505.59;;;8.11;100.00
6514;BME280;3290;47.716;9.070;2023-04-21T06:04:43;96500.03;;;7.95;100.00
6514;BME280;3290;47.716;9.070;2023-04-21T06:07:09;96511.00;;;8.16;100.00
6514;BME280;3290;47.716;9.070;2023-04-21T06:09:40;96511.66;;;8.36;100.00
6514;BME280;3290;47.716;9.070;2023-04-21T06:12:06;96505.53;;;8.54;100.00
6514;BME280;3290;47.716;9.070;2023-04-21T06:14:31;96514.28;;;8.66;100.00
6514;BME280;3290;47.716;9.070;2023-04-21T06:16:57;96521.09;;;8.67;100.00
6514;BME280;3290;47.716;9.070;2023-04-21T06:19:23;96520.44;;;8.47;100.00
6514;BME280;3290;47.716;9.070;2023-04-21T06:21:48;96521.88;;;8.68;100.00
6514;BME280;3290;47.716;9.070;2023-04-21T06:24:13;96516.59;;;8.74;100.00
6514;BME280;3290;47.716;9.070;2023-04-21T06:26:39;96520.56;;;8.83;100.00
6514;BME280;3290;47.716;9.070;2023-04-21T06:29:05;96517.25;;;8.94;100.00
6514;BME280;3290;47.716;9.070;2023-04-21T06:31:30;96512.75;;;9.01;100.00
6514;BME280;3290;47.716;9.070;2023-04-21T06:33:55;96509.00;;;8.97;100.00
6514;BME280;3290;47.716;9.070;2023-04-21T06:36:21;96509.63;;;8.92;100.00
6514;BME280;3290;47.716;9.070;2023-04-21T06:38:47;96503.38;;;8.93;100.00
6514;BME280;3290;47.716;9.070;2023-04-21T06:41:13;96499.16;;;9.17;100.00
6514;BME280;3290;47.716;9.070;2023-04-21T06:43:38;96494.50;;;9.18;100.00
6514;BME280;3290;47.716;9.070;2023-04-21T06:46:04;96501.59;;;9.12;100.00
6514;BME280;3290;47.716;9.070;2023-04-21T06:48:29;96489.91;;;9.38;100.00
6514;BME280;3290;47.716;9.070;2023-04-21T06:50:55;96501.56;;;8.94;100.00
6514;BME280;3290;47.716;9.070;2023-04-21T06:53:20;96496.81;;;9.09;100.00
6514;BME280;3290;47.716;9.070;2023-04-21T06:55:46;96507.84;;;9.11;100.00
6514;BME280;3290;47.716;9.070;2023-04-21T06:58:12;96503.03;;;9.32;100.00
6514;BME280;3290;47.716;9.070;2023-04-21T07:00:37;96497.78;;;9.14;100.00
6514;BME280;3290;47.716;9.070;2023-04-21T07:03:03;96499.81;;;9.30;100.00
6514;BME280;3290;47.716;9.070;2023-04-21T07:05:28;96484.09;;;9.54;100.00
6514;BME280;3290;47.716;9.070;2023-04-21T07:07:53;96474.19;;;9.74;100.00
6514;BME280;3290;47.716;9.070;2023-04-21T07:10:24;96477.94;;;9.78;100.00
6514;BME280;3290;47.716;9.070;2023-04-21T07:12:50;96470.94;;;10.07;100.00
6514;BME280;3290;47.716;9.070;2023-04-21T07:15:15;96481.47;;;10.59;100.00
6514;BME280;3290;47.716;9.070;2023-04-21T07:17:41;96477.91;;;10.42;98.55
6514;BME280;3290;47.716;9.070;2023-04-21T07:20:07;96486.41;;;10.78;98.38
6514;BME280;3290;47.716;9.070;2023-04-21T07:22:32;96473.78;;;10.98;95.58
6514;BME280;3290;47.716;9.070;2023-04-21T07:25:00;96468.53;;;11.21;94.64
6514;BME280;3290;47.716;9.070;2023-04-21T07:27:26;96460.66;;;11.55;93.75
6514;BME280;3290;47.716;9.070;2023-04-21T07:29:51;96464.75;;;11.62;90.46
6514;BME280;3290;47.716;9.070;2023-04-21T07:32:16;96468.56;;;11.10;91.72
6514;BME280;3290;47.716;9.070;2023-04-21T07:34:42;96456.56;;;11.36;90.05
6514;BME280;3290;47.716;9.070;2023-04-21T07:37:10;96460.78;;;11.26;90.97
6514;BME280;3290;47.716;9.070;2023-04-21T07:39:35;96455.84;;;11.41;90.25
6514;BME280;3290;47.716;9.070;2023-04-21T07:42:01;96449.97;;;12.12;85.71
6514;BME280;3290;47.716;9.070;2023-04-21T07:44:26;96442.41;;;11.88;85.02
6514;BME280;3290;47.716;9.070;2023-04-21T07:46:53;96460.91;;;11.54;88.59
6514;BME280;3290;47.716;9.070;2023-04-21T07:49:18;96444.84;;;12.05;86.37
6514;BME280;3290;47.716;9.070;2023-04-21T07:51:44;96453.59;;;11.56;89.25
6514;BME280;3290;47.716;9.070;2023-04-21T07:54:09;96450.59;;;11.41;89.22
6514;BME280;3290;47.716;9.070;2023-04-21T07:56:35;96442.75;;;11.91;87.09
6514;BME280;3290;47.716;9.070;2023-04-21T07:59:00;96457.31;;;12.10;86.02
6514;BME280;3290;47.716;9.070;2023-04-21T08:01:26;96451.94;;;11.77;87.99
6514;BME280;3290;47.716;9.070;2023-04-21T08:03:51;96468.66;;;11.26;88.08
6514;BME280;3290;47.716;9.070;2023-04-21T08:06:16;96460.56;;;10.82;93.16
6514;BME280;3290;47.716;9.070;2023-04-21T08:08:42;96459.19;;;11.14;91.30
6514;BME280;3290;47.716;9.070;2023-04-21T08:11:07;96459.25;;;12.03;88.09
6514;BME280;3290;47.716;9.070;2023-04-21T08:13:32;96461.44;;;12.34;86.17
6514;BME280;3290;47.716;9.070;2023-04-21T08:15:58;96458.81;;;12.50;86.18
6514;BME280;3290;47.716;9.070;2023-04-21T08:18:23;96466.75;;;12.99;83.66
6514;BME280;3290;47.716;9.070;2023-04-21T08:20:49;96469.28;;;13.10;82.73
6514;BME280;3290;47.716;9.070;2023-04-21T08:23:16;96460.06;;;12.47;87.40
6514;BME280;3290;47.716;9.070;2023-04-21T08:25:42;96464.56;;;11.92;86.99
6514;BME280;3290;47.716;9.070;2023-04-21T08:28:07;96465.59;;;11.79;89.56
6514;BME280;3290;47.716;9.070;2023-04-21T08:30:32;96460.84;;;12.32;85.91
6514;BME280;3290;47.716;9.070;2023-04-21T08:32:58;96452.94;;;12.59;84.88
6514;BME280;3290;47.716;9.070;2023-04-21T08:35:24;96452.13;;;13.24;80.86
6514;BME280;3290;47.716;9.070;2023-04-21T08:37:49;96445.66;;;12.34;82.75
6514;BME280;3290;47.716;9.070;2023-04-21T08:40:15;96450.91;;;12.94;82.06
6514;BME280;3290;47.716;9.070;2023-04-21T08:42:41;96458.16;;;12.43;84.92
6514;BME280;3290;47.716;9.070;2023-04-21T08:45:07;96451.63;;;12.45;86.51
6514;BME280;3290;47.716;9.070;2023-04-21T08:47:33;96448.59;;;13.35;82.75
6514;BME280;3290;47.716;9.070;2023-04-21T08:49:59;96444.09;;;13.52;80.22
6514;BME280;3290;47.716;9.070;2023-04-21T08:52:24;96439.06;;;13.50;78.86
6514;BME280;3290;47.716;9.070;2023-04-21T08:54:50;96442.25;;;13.31;80.92
6514;BME280;3290;47.716;9.070;2023-04-21T08:57:18;96446.41;;;13.27;81.04
6514;BME280;3290;47.716;9.070;2023-04-21T08:59:44;96440.72;;;13.56;80.80
6514;BME280;3290;47.716;9.070;2023-04-21T09:02:14;96446.50;;;13.53;79.91
6514;BME280;3290;47.716;9.070;2023-04-21T09:07:07;96444.28;;;13.45;79.54
6514;BME280;3290;47.716;9.070;2023-04-21T09:09:50;96445.16;;;14.14;78.24
6514;BME280;3290;47.716;9.070;2023-04-21T09:12:16;96436.50;;;14.19;76.12
6514;BME280;3290;47.716;9.070;2023-04-21T09:14:42;96442.09;;;13.80;77.27
6514;BME280;3290;47.716;9.070;2023-04-21T09:17:07;96445.50;;;14.01;76.24
6514;BME280;3290;47.716;9.070;2023-04-21T09:19:33;96446.13;;;14.61;74.95
6514;BME280;3290;47.716;9.070;2023-04-21T09:21:59;96439.00;;;14.30;76.23
6514;BME280;3290;47.716;9.070;2023-04-21T09:24:25;96435.66;;;14.13;76.79
6514;BME280;3290;47.716;9.070;2023-04-21T09:26:51;96439.59;;;14.37;77.33
6514;BME280;3290;47.716;9.070;2023-04-21T09:29:17;96429.22;;;14.57;73.93
6514;BME280;3290;47.716;9.070;2023-04-21T09:31:43;96422.22;;;15.03;75.24
6514;BME280;3290;47.716;9.070;2023-04-21T09:34:20;96439.00;;;15.23;72.65
6514;BME280;3290;47.716;9.070;2023-04-21T09:36:47;96432.16;;;14.91;73.71
6514;BME280;3290;47.716;9.070;2023-04-21T09:39:12;96429.84;;;15.36;71.42
6514;BME280;3290;47.716;9.070;2023-04-21T09:41:38;96431.25;;;16.14;68.15
6514;BME280;3290;47.716;9.070;2023-04-21T09:44:03;96432.25;;;15.42;69.95
6514;BME280;3290;47.716;9.070;2023-04-21T09:46:32;96437.84;;;15.51;68.14
6514;BME280;3290;47.716;9.070;2023-04-21T09:49:02;96438.59;;;14.43;72.94
6514;BME280;3290;47.716;9.070;2023-04-21T09:51:29;96433.81;;;14.40;75.06
6514;BME280;3290;47.716;9.070;2023-04-21T09:53:58;96447.34;;;13.80;78.21
6514;BME280;3290;47.716;9.070;2023-04-21T09:56:25;96437.94;;;14.31;76.89
6514;BME280;3290;47.716;9.070;2023-04-21T09:58:57;96435.34;;;14.10;76.96
6514;BME280;3290;47.716;9.070;2023-04-21T10:01:25;96431.94;;;14.09;76.97
6514;BME280;3290;47.716;9.070;2023-04-21T10:03:51;96432.59;;;13.58;78.86
6514;BME280;3290;47.716;9.070;2023-04-21T10:06:17;96435.75;;;13.59;80.63
6514;BME280;3290;47.716;9.070;2023-04-21T10:08:43;96424.09;;;14.72;77.11
6514;BME280;3290;47.716;9.070;2023-04-21T10:11:10;96429.31;;;15.03;74.58
6514;BME280;3290;47.716;9.070;2023-04-21T10:13:36;96423.94;;;15.70;71.37
6514;BME280;3290;47.716;9.070;2023-04-21T10:16:07;96417.38;;;15.77;68.72
6514;BME280;3290;47.716;9.070;2023-04-21T10:18:37;96416.38;;;15.37;71.11
6514;BME280;3290;47.716;9.070;2023-04-21T10:21:03;96422.28;;;15.54;70.64
6514;BME280;3290;47.716;9.070;2023-04-21T10:26:08;96404.66;;;15.69;71.88
6514;BME280;3290;47.716;9.070;2023-04-21T10:31:23;96400.13;;;17.05;63.97
6514;BME280;3290;47.716;9.070;2023-04-21T10:39:27;96383.38;;;17.44;61.37
6514;BME280;3290;47.716;9.070;2023-04-21T10:45:07;96378.78;;;18.27;58.99
6514;BME280;3290;47.716;9.070;2023-04-21T10:52:43;96382.59;;;17.43;63.34
6514;BME280;3290;47.716;9.070;2023-04-21T10:55:09;96384.44;;;18.10;61.70
6514;BME280;3290;47.716;9.070;2023-04-21T10:57:37;96379.75;;;18.74;60.40
6514;BME280;3290;47.716;9.070;2023-04-21T11:00:05;96379.47;;;18.42;60.26
6514;BME280;3290;47.716;9.070;2023-04-21T11:02:32;96374.88;;;19.19;58.87
6514;BME280;3290;47.716;9.070;2023-04-21T11:04:59;96363.63;;;19.26;55.72
6514;BME280;3290;47.716;9.070;2023-04-21T11:07:25;96368.13;;;19.03;57.23
6514;BME280;3290;47.716;9.070;2023-04-21T11:10:01;96363.75;;;18.07;59.95
6514;BME280;3290;47.716;9.070;2023-04-21T11:12:29;96359.03;;;18.00;59.06
6514;BME280;3290;47.716;9.070;2023-04-21T11:14:55;96350.13;;;17.76;60.32
6514;BME280;3290;47.716;9.070;2023-04-21T11:17:21;96357.06;;;17.72;61.46
6514;BME280;3290;47.716;9.070;2023-04-21T11:19:57;96352.66;;;18.44;60.96
6514;BME280;3290;47.716;9.070;2023-04-21T11:22:24;96351.19;;;19.22;56.53
6514;BME280;3290;47.716;9.070;2023-04-21T11:24:53;96348.97;;;18.78;57.89
6514;BME280;3290;47.716;9.070;2023-04-21T11:27:19;96338.22;;;18.59;59.00
6514;BME280;3290;47.716;9.070;2023-04-21T11:29:47;96336.81;;;18.67;57.90
6514;BME280;3290;47.716;9.070;2023-04-21T11:32:13;96332.53;;;19.50;58.03
6514;BME280;3290;47.716;9.070;2023-04-21T11:34:39;96335.75;;;19.70;55.08
6514;BME280;3290;47.716;9.070;2023-04-21T11:37:25;96334.19;;;18.62;58.08
6514;BME280;3290;47.716;9.070;2023-04-21T11:39:57;96341.63;;;18.27;58.89
6514;BME280;3290;47.716;9.070;2023-04-21T11:42:23;96336.81;;;19.00;57.43
6514;BME280;3290;47.716;9.070;2023-04-21T11:44:48;96331.97;;;19.07;57.66
6514;BME280;3290;47.716;9.070;2023-04-21T11:47:18;96326.50;;;18.93;58.47
6514;BME280;3290;47.716;9.070;2023-04-21T11:50:01;96334.06;;;18.82;59.81
6514;BME280;3290;47.716;9.070;2023-04-21T11:52:28;96335.81;;;19.19;60.21
6514;BME280;3290;47.716;9.070;2023-04-21T11:57:35;96306.53;;;18.73;61.41
6514;BME280;3290;47.716;9.070;2023-04-21T12:00:03;96314.22;;;19.02;61.23
6514;BME280;3290;47.716;9.070;2023-04-21T12:02:31;96310.38;;;19.83;57.48
6514;BME280;3290;47.716;9.070;2023-04-21T12:05:05;96299.78;;;20.96;52.80
6514;BME280;3290;47.716;9.070;2023-04-21T12:07:32;96305.31;;;20.00;54.81
6514;BME280;3290;47.716;9.070;2023-04-21T12:09:58;96302.38;;;20.38;53.09
6514;BME280;3290;47.716;9.070;2023-04-21T12:12:24;96316.69;;;19.87;53.41
6514;BME280;3290;47.716;9.070;2023-04-21T12:14:50;96315.63;;;19.65;54.44
6514;BME280;3290;47.716;9.070;2023-04-21T12:17:16;96327.81;;;20.07;55.60
6514;BME280;3290;47.716;9.070;2023-04-21T12:19:42;96313.81;;;20.20;54.25
6514;BME280;3290;47.716;9.070;2023-04-21T12:22:08;96318.63;;;20.18;54.13
6514;BME280;3290;47.716;9.070;2023-04-21T12:24:35;96311.16;;;19.37;56.16
6514;BME280;3290;47.716;9.070;2023-04-21T12:27:01;96316.56;;;19.97;55.92
6514;BME280;3290;47.716;9.070;2023-04-21T12:29:27;96314.47;;;20.30;55.60
6514;BME280;3290;47.716;9.070;2023-04-21T12:31:52;96306.22;;;21.08;50.57
6514;BME280;3290;47.716;9.070;2023-04-21T12:34:17;96310.56;;;21.31;49.36
6514;BME280;3290;47.716;9.070;2023-04-21T12:36:43;96314.56;;;20.88;49.40
6514;BME280;3290;47.716;9.070;2023-04-21T12:39:08;96325.81;;;20.17;51.79
6514;BME280;3290;47.716;9.070;2023-04-21T12:41:34;96322.53;;;19.66;53.34
6514;BME280;3290;47.716;9.070;2023-04-21T12:43:59;96334.66;;;19.71;54.28
6514;BME280;3290;47.716;9.070;2023-04-21T12:46:25;96329.59;;;19.52;54.95
6514;BME280;3290;47.716;9.070;2023-04-21T12:48:50;96326.22;;;19.46;54.66
6514;BME280;3290;47.716;9.070;2023-04-21T12:51:16;96336.84;;;19.46;53.84
6514;BME280;3290;47.716;9.070;2023-04-21T12:53:42;96329.50;;;19.80;52.77
6514;BME280;3290;47.716;9.070;2023-04-21T12:56:07;96333.53;;;19.77;51.72
6514;BME280;3290;47.716;9.070;2023-04-21T12:58:33;96325.16;;;20.07;51.98
6514;BME280;3290;47.716;9.070;2023-04-21T13:00:58;96321.44;;;19.90;52.00
6514;BME280;3290;47.716;9.070;2023-04-21T13:03:24;96325.41;;;19.46;51.16
6514;BME280;3290;47.716;9.070;2023-04-21T13:05:49;96318.00;;;18.91;52.88
6514;BME280;3290;47.716;9.070;2023-04-21T13:08:15;96324.41;;;19.19;53.41
6514;BME280;3290;47.716;9.070;2023-04-21T13:10:40;96317.06;;;19.34;53.22
6514;BME280;3290;47.716;9.070;2023-04-21T13:13:05;96317.41;;;19.04;52.60
6514;BME280;3290;47.716;9.070;2023-04-21T13:15:31;96314.91;;;19.36;50.49
6514;BME280;3290;47.716;9.070;2023-04-21T13:17:57;96321.94;;;19.27;50.60
6514;BME280;3290;47.716;9.070;2023-04-21T13:20:23;96326.31;;;19.13;51.17
6514;BME280;3290;47.716;9.070;2023-04-21T13:22:48;96322.91;;;18.80;51.73
6514;BME280;3290;47.716;9.070;2023-04-21T13:25:13;96331.50;;;19.23;53.56
6514;BME280;3290;47.716;9.070;2023-04-21T13:27:39;96337.16;;;18.60;57.00
6514;BME280;3290;47.716;9.070;2023-04-21T13:30:09;96338.22;;;18.21;60.04
6514;BME280;3290;47.716;9.070;2023-04-21T13:32:36;96334.63;;;18.03;62.14
6514;BME280;3290;47.716;9.070;2023-04-21T13:35:02;96337.22;;;18.12;62.82
6514;BME280;3290;47.716;9.070;2023-04-21T13:37:33;96350.13;;;17.76;64.56
6514;BME280;3290;47.716;9.070;2023-04-21T13:39:58;96347.66;;;17.41;66.98
6514;BME280;3290;47.716;9.070;2023-04-21T13:42:24;96346.06;;;17.30;71.12